Метеостанция


АнтоновUKKM 122100Z AUTO 21003MPS 9000 NCD 06/02 Q1011
БориспольUKBB 122100Z 21003MPS CAVOK 01/00 Q1011 R18L/190060 NOSIG
Гаврышовка (Винница)UKWW 121800Z 19003MPS 9999 OVC023 05/M00 Q1012 NOSIG
ДнепропетровскUKDD 122100Z 25006MPS 220V280 9999 OVC005 07/06 Q1016 R26/290058 NOSIG
ДонецкNo METAR available for UKCC.
ЖуляныUKKK 122100Z 25002MPS CAVOK 06/01 Q1011 R26/810250 NOSIG
Запорожье(Мокрая)UKDE 122100Z 22005MPS 5000 BR OVC006 08/07 Q1017 R20/190360 NOSIG
Ивано-ФранковскUKLI 122000Z 22003MPS 160V260 9999 BKN043 13/06 Q1010 R28/090070 NOSIG
Кривой РогUKDR 122100Z 22003MPS 0100 R18/0400N FG VV001 06/06 Q1015 R18/19//60 NOSIG
ЛуганскNo METAR available for UKCW.
ЛьвовUKLL 122100Z 29003MPS 9000 -SHRA SCT028CB BKN028 08/06 Q1011 R31/290060 NOSIG
МариупольNo METAR available for UKCM.
НиколаевUKON 121600Z 18005MPS CAVOK 07/06 Q1014 NOSIG
ОдессаUKOO 122113Z 00000MPS 0600 R16/1400V1800D PRFG SKC 03/03 Q1015 R16/090060 TEMPO 0300 FG
РовноUKLR 121500Z 18003MPS 9999 SCT026 OVC100 09/05 Q1007 NOSIG
СимферопольNo METAR available for UKFF.
УжгородUKLU 122000Z 00000MPS 9999 -RA OVC025 09/07 Q1012 NOSIG
ХарьковUKHH 122100Z 23004MPS 8000 BKN007 OVC020 07/06 Q1014 R25/190061 NOSIG
ЧеркассыNo METAR available for UKKE.
ЧерновцыUKLN 122030Z 00000MPS 3700 BR SKC 03/03 Q1012 R15/09//70 NOSIG
Скачать:
Скачать этот файл (Metar_шпаргалка.jpg)Расшифровка METAR[ ]4799 Кб
Вся информация, которая имеется в использовании на сайте и доступная для скачивания, получена исключительно из открытых источников информации сети Интернет, всякое совпадение с данными, имеющими ограничения в доступе, случайное и не является преднамеренным.